createdAt,value
2022-12-22T00:01:05.050Z,99458.00
2022-12-22T00:06:28.111Z,99461.66
2022-12-22T00:11:49.649Z,99453.50
2022-12-22T00:17:10.181Z,99441.72
2022-12-22T00:22:32.995Z,99435.00
2022-12-22T00:27:54.702Z,99425.91
2022-12-22T00:33:15.249Z,99422.28
2022-12-22T00:38:38.335Z,99412.38
2022-12-22T00:44:00.114Z,99406.78
2022-12-22T00:49:20.791Z,99410.56
2022-12-22T00:54:41.517Z,99408.25
2022-12-22T01:00:03.465Z,99401.91
2022-12-22T01:05:24.492Z,99397.03
2022-12-22T01:10:46.294Z,99389.59
2022-12-22T01:16:07.932Z,99388.47
2022-12-22T01:21:29.145Z,99382.03
2022-12-22T01:26:49.183Z,99375.84
2022-12-22T01:32:10.747Z,99362.03
2022-12-22T01:37:31.149Z,99355.94
2022-12-22T01:42:53.658Z,99348.31
2022-12-22T01:48:15.466Z,99352.97
2022-12-22T01:53:39.379Z,99343.97
2022-12-22T01:59:03.278Z,99338.50
2022-12-22T02:04:25.342Z,99337.88
2022-12-22T02:09:55.844Z,99332.44
2022-12-22T02:15:21.955Z,99339.53
2022-12-22T02:20:55.078Z,99324.91
2022-12-22T02:26:21.094Z,99320.59
2022-12-22T02:31:43.721Z,99304.28
2022-12-22T02:37:13.189Z,99295.31
2022-12-22T02:42:41.628Z,99289.56
2022-12-22T02:48:08.865Z,99273.13
2022-12-22T02:53:32.210Z,99266.66
2022-12-22T02:58:53.148Z,99265.09
2022-12-22T03:04:14.854Z,99256.34
2022-12-22T03:09:35.260Z,99254.09
2022-12-22T03:14:55.616Z,99235.66
2022-12-22T03:20:17.270Z,99232.00
2022-12-22T03:25:37.761Z,99217.63
2022-12-22T03:30:40.876Z,99210.59
2022-12-22T03:35:46.365Z,99201.75
2022-12-22T03:40:49.129Z,99200.19
2022-12-22T03:46:12.965Z,99202.72
2022-12-22T03:51:17.163Z,99191.06
2022-12-22T03:56:19.932Z,99192.47
2022-12-22T04:01:22.999Z,99184.16
2022-12-22T04:06:27.201Z,99171.94
2022-12-22T04:11:47.543Z,99162.22
2022-12-22T04:16:50.498Z,99152.63
2022-12-22T04:21:55.386Z,99143.50
2022-12-22T04:26:58.188Z,99140.97
2022-12-22T04:32:01.023Z,99143.06
2022-12-22T04:37:14.820Z,99138.16
2022-12-22T04:42:20.189Z,99129.41
2022-12-22T04:47:23.009Z,99122.94
2022-12-22T04:52:27.647Z,99115.66
2022-12-22T04:57:31.135Z,99102.69
2022-12-22T05:02:36.202Z,99107.63
2022-12-22T05:07:40.409Z,99093.00
2022-12-22T05:12:58.092Z,99084.13
2022-12-22T05:18:01.569Z,99084.81
2022-12-22T05:23:05.662Z,99081.31
2022-12-22T05:28:08.405Z,99080.75
2022-12-22T05:33:11.138Z,99080.03
2022-12-22T05:38:15.244Z,99079.16
2022-12-22T05:43:17.994Z,99072.81
2022-12-22T05:48:27.413Z,99071.91
2022-12-22T05:53:33.677Z,99068.78
2022-12-22T05:58:39.399Z,99064.06
2022-12-22T06:03:42.263Z,99063.38
2022-12-22T06:08:46.495Z,99051.41
2022-12-22T06:13:49.212Z,99045.34
2022-12-22T06:18:51.907Z,99042.09
2022-12-22T06:23:56.179Z,99045.84
2022-12-22T06:28:58.844Z,99040.50
2022-12-22T06:34:01.392Z,99036.13
2022-12-22T06:39:05.766Z,99037.84
2022-12-22T06:44:08.514Z,99038.94
2022-12-22T06:49:11.212Z,99037.59
2022-12-22T06:54:19.471Z,99042.66
2022-12-22T06:59:25.009Z,99045.19
2022-12-22T07:04:29.688Z,99050.13
2022-12-22T07:09:33.850Z,99052.53
2022-12-22T07:14:36.593Z,99049.75
2022-12-22T07:19:39.341Z,99049.28
2022-12-22T07:24:43.486Z,99052.81
2022-12-22T07:29:46.227Z,99053.25
2022-12-22T07:34:48.984Z,99050.69
2022-12-22T07:39:53.069Z,99058.97
2022-12-22T07:44:55.835Z,99056.47
2022-12-22T07:50:15.944Z,99062.25
2022-12-22T07:55:20.536Z,99067.88
2022-12-22T08:00:24.551Z,99074.66
2022-12-22T08:05:27.302Z,99077.19
2022-12-22T08:10:32.776Z,99079.47
2022-12-22T08:15:35.567Z,99087.94
2022-12-22T08:20:38.409Z,99087.28
2022-12-22T08:25:42.613Z,99096.84
2022-12-22T08:30:46.347Z,99087.59
2022-12-22T08:35:51.875Z,99096.44
2022-12-22T08:40:55.993Z,99113.56
2022-12-22T08:45:58.703Z,99113.47
2022-12-22T08:51:01.461Z,99109.28
2022-12-22T08:56:06.064Z,99121.09
2022-12-22T09:01:08.882Z,99129.88
2022-12-22T09:06:11.647Z,99137.94
2022-12-22T09:11:16.967Z,99146.31
2022-12-22T09:16:20.938Z,99151.56
2022-12-22T09:21:24.739Z,99149.63
2022-12-22T09:26:30.211Z,99157.81
2022-12-22T09:31:34.157Z,99155.28
2022-12-22T09:36:37.096Z,99160.56
2022-12-22T09:41:47.131Z,99167.72
2022-12-22T09:46:50.812Z,99178.41
2022-12-22T09:51:57.166Z,99186.03
2022-12-22T09:57:02.524Z,99193.66
2022-12-22T10:02:17.364Z,99203.34
2022-12-22T10:07:27.657Z,99209.06
2022-12-22T10:12:31.843Z,99210.09
2022-12-22T10:17:35.804Z,99207.69
2022-12-22T10:22:50.709Z,99215.41
2022-12-22T10:27:56.089Z,99222.75
2022-12-22T10:33:07.933Z,99228.44
2022-12-22T10:38:28.124Z,99232.16
2022-12-22T10:43:32.986Z,99232.28
2022-12-22T10:48:37.910Z,99241.97
2022-12-22T10:53:46.264Z,99268.34
2022-12-22T10:58:50.429Z,99269.66
2022-12-22T11:03:53.314Z,99284.44
2022-12-22T11:09:23.706Z,99289.72
2022-12-22T11:14:31.917Z,99293.28
2022-12-22T11:19:46.795Z,99307.44
2022-12-22T11:25:03.677Z,99306.28
2022-12-22T11:30:11.165Z,99301.84
2022-12-22T11:35:20.723Z,99315.06
2022-12-22T11:40:33.938Z,99319.72
2022-12-22T11:45:53.099Z,99311.03
2022-12-22T11:51:08.953Z,99319.44
2022-12-22T11:56:23.590Z,99315.09
2022-12-22T12:01:43.697Z,99325.41
2022-12-22T12:07:04.926Z,99330.31
2022-12-22T12:12:17.999Z,99328.47
2022-12-22T12:17:35.703Z,99328.59
2022-12-22T12:22:49.682Z,99352.06
2022-12-22T12:28:09.015Z,99376.41
2022-12-22T12:33:18.137Z,99376.47
2022-12-22T12:39:05.581Z,99391.84
2022-12-22T12:43:54.468Z,99404.44
2022-12-22T12:48:57.296Z,99405.81
2022-12-22T12:54:42.948Z,99403.78
2022-12-22T12:59:51.565Z,99410.28
2022-12-22T13:05:33.324Z,99415.66
2022-12-22T13:10:38.289Z,99411.09
2022-12-22T13:15:44.936Z,99407.81
2022-12-22T13:21:12.226Z,99412.88
2022-12-22T13:26:22.701Z,99410.63
2022-12-22T13:31:34.407Z,99418.06
2022-12-22T13:36:38.119Z,99413.97
2022-12-22T13:41:42.896Z,99421.91
2022-12-22T13:46:47.983Z,99425.69
2022-12-22T13:51:50.847Z,99438.72
2022-12-22T13:56:56.688Z,99437.69
2022-12-22T14:02:03.111Z,99445.41
2022-12-22T14:07:11.945Z,99439.75
2022-12-22T14:12:18.059Z,99451.88
2022-12-22T14:17:24.887Z,99449.81
2022-12-22T14:22:30.218Z,99460.00
2022-12-22T14:27:36.995Z,99467.06
2022-12-22T14:32:42.703Z,99479.25
2022-12-22T14:37:45.473Z,99486.72
2022-12-22T14:42:48.338Z,99481.06
2022-12-22T14:47:54.367Z,99496.50
2022-12-22T14:52:59.323Z,99503.72
2022-12-22T14:58:06.559Z,99499.72
2022-12-22T15:03:31.972Z,99503.16
2022-12-22T15:08:39.132Z,99498.34
2022-12-22T15:13:42.301Z,99493.69
2022-12-22T15:18:47.343Z,99486.41
2022-12-22T15:23:50.492Z,99504.63
2022-12-22T15:28:53.304Z,99504.75
2022-12-22T15:34:00.446Z,99512.59
2022-12-22T15:39:03.183Z,99508.59
2022-12-22T15:44:06.011Z,99512.84
2022-12-22T15:49:16.244Z,99518.28
2022-12-22T15:54:19.826Z,99521.09
2022-12-22T15:59:25.893Z,99519.41
2022-12-22T16:04:30.404Z,99524.75
2022-12-22T16:09:39.980Z,99525.94
2022-12-22T16:14:50.014Z,99512.13
2022-12-22T16:19:54.882Z,99505.44
2022-12-22T16:24:57.941Z,99495.16
2022-12-22T16:30:00.778Z,99491.38
2022-12-22T16:35:16.272Z,99483.75
2022-12-22T16:40:20.090Z,99481.81
2022-12-22T16:45:25.183Z,99488.00
2022-12-22T16:50:33.286Z,99472.94
2022-12-22T16:55:36.054Z,99473.06
2022-12-22T17:00:40.601Z,99455.72
2022-12-22T17:05:49.069Z,99451.38
2022-12-22T17:10:52.803Z,99439.22
2022-12-22T17:15:55.610Z,99440.69
2022-12-22T17:21:01.230Z,99434.59
2022-12-22T17:26:08.679Z,99430.84
2022-12-22T17:31:16.494Z,99427.69
2022-12-22T17:36:29.493Z,99422.84
2022-12-22T17:41:32.480Z,99414.84
2022-12-22T17:46:35.327Z,99407.81
2022-12-22T17:51:40.769Z,99418.81
2022-12-22T17:56:43.561Z,99422.97
2022-12-22T18:01:46.390Z,99412.28
2022-12-22T18:06:50.560Z,99414.69
2022-12-22T18:11:54.618Z,99398.78
2022-12-22T18:16:57.563Z,99405.56
2022-12-22T18:22:01.598Z,99398.16
2022-12-22T18:27:04.557Z,99394.91
2022-12-22T18:32:09.295Z,99386.66
2022-12-22T18:37:17.542Z,99382.56
2022-12-22T18:42:22.690Z,99370.31
2022-12-22T18:47:25.396Z,99359.50
2022-12-22T18:52:30.926Z,99353.50
2022-12-22T18:57:33.615Z,99351.78
2022-12-22T19:02:36.279Z,99343.53
2022-12-22T19:07:40.539Z,99333.38
2022-12-22T19:12:43.520Z,99328.28
2022-12-22T19:17:46.420Z,99315.19
2022-12-22T19:22:51.131Z,99315.06
2022-12-22T19:27:57.423Z,99307.66
2022-12-22T19:33:03.046Z,99310.13
2022-12-22T19:38:19.786Z,99291.53
2022-12-22T19:43:22.656Z,99280.97
2022-12-22T19:48:27.682Z,99283.38
2022-12-22T19:53:31.782Z,99267.25
2022-12-22T19:58:40.630Z,99266.13
2022-12-22T20:03:43.446Z,99261.69
2022-12-22T20:08:47.625Z,99250.59
2022-12-22T20:13:50.482Z,99247.69
2022-12-22T20:18:53.333Z,99237.72
2022-12-22T20:24:01.048Z,99242.22
2022-12-22T20:29:03.827Z,99234.94
2022-12-22T20:34:06.816Z,99225.50
2022-12-22T20:39:16.377Z,99219.06
2022-12-22T20:44:19.180Z,99212.56
2022-12-22T20:49:21.943Z,99200.38
2022-12-22T20:54:26.064Z,99192.47
2022-12-22T20:59:29.177Z,99186.00
2022-12-22T21:04:32.443Z,99183.09
2022-12-22T21:09:36.815Z,99183.19
2022-12-22T21:14:39.759Z,99176.47
2022-12-22T21:19:42.526Z,99194.50
2022-12-22T21:24:46.680Z,99173.22
2022-12-22T21:29:49.437Z,99167.00
2022-12-22T21:34:52.232Z,99159.13
2022-12-22T21:39:56.393Z,99151.03
2022-12-22T21:44:59.516Z,99152.91
2022-12-22T21:50:02.300Z,99134.16
2022-12-22T21:55:07.336Z,99149.00
2022-12-22T22:00:13.623Z,99141.38
2022-12-22T22:05:24.155Z,99134.97
2022-12-22T22:10:30.454Z,99129.56
2022-12-22T22:15:33.703Z,99111.28
2022-12-22T22:20:36.552Z,99116.59
2022-12-22T22:25:40.921Z,99115.28
2022-12-22T22:30:43.808Z,99109.09
2022-12-22T22:35:46.758Z,99108.00
2022-12-22T22:40:51.254Z,99105.31
2022-12-22T22:45:54.025Z,99099.72
2022-12-22T22:50:56.818Z,99092.72
2022-12-22T22:56:03.688Z,99104.28
2022-12-22T23:01:07.711Z,99107.47
2022-12-22T23:06:13.652Z,99093.38
2022-12-22T23:11:18.155Z,99092.50
2022-12-22T23:16:21.912Z,99094.47
2022-12-22T23:21:24.925Z,99084.81
2022-12-22T23:26:29.139Z,99086.66
2022-12-22T23:31:32.453Z,99083.97
2022-12-22T23:36:35.441Z,99084.66
2022-12-22T23:41:39.667Z,99088.72
2022-12-22T23:46:42.486Z,99092.16
2022-12-22T23:51:45.354Z,99092.28
2022-12-22T23:56:49.531Z,99085.41
